Time;durP1;ratioP1;P1;durP2;ratioP2;P2;SDS_P1;SDS_P2;PMS_P1;PMS_P2;Temp;Humidity;BMP_temperature;BMP_pressure;BME280_temperature;BME280_humidity;BME280_pressure;Samples;Min_cycle;Max_cycle;Signal;HPM_P1;HPM_P2
2023/07/08 00:01:15;;;;;;;1.05;1.00;;;;;;;17.82;65.70;100171.34;5117047;28;20115;-62
2023/07/08 00:03:44;;;;;;;2.70;1.52;;;;;;;17.84;65.50;100169.56;5116975;27;20056;-63
2023/07/08 00:06:18;;;;;;;0.60;0.60;;;;;;;17.88;65.47;100170.34;5117042;28;20049;-63
2023/07/08 00:08:47;;;;;;;1.60;1.50;;;;;;;17.86;64.82;100177.28;5117288;28;20050;-63
2023/07/08 00:11:17;;;;;;;1.02;0.93;;;;;;;17.78;64.66;100174.88;5116879;28;20501;-63
2023/07/08 00:13:47;;;;;;;1.63;1.42;;;;;;;17.82;64.56;100168.78;5116796;28;20054;-64
2023/07/08 00:16:18;;;;;;;1.33;0.88;;;;;;;17.85;64.45;100170.44;5115535;28;20136;-63
2023/07/08 00:19:09;;;;;;;1.23;1.10;;;;;;;17.78;64.49;100168.88;5025887;22;20124;-68
2023/07/08 00:21:40;;;;;;;2.10;1.05;;;;;;;17.80;64.44;100173.09;5056431;28;20044;-60
2023/07/08 00:24:09;;;;;;;0.63;0.55;;;;;;;17.72;64.37;100166.41;5056076;28;20053;-61
2023/07/08 00:26:38;;;;;;;1.30;1.20;;;;;;;17.76;64.41;100170.63;5056104;28;20037;-61
2023/07/08 00:29:10;;;;;;;1.27;1.00;;;;;;;17.77;64.36;100172.31;5056206;28;20104;-61
2023/07/08 00:31:40;;;;;;;6.65;1.75;;;;;;;17.74;64.24;100172.38;5071732;28;20278;-61
2023/07/08 00:34:09;;;;;;;0.50;0.50;;;;;;;17.73;64.62;100175.88;5056084;28;20486;-61
2023/07/08 00:36:39;;;;;;;0.80;0.80;;;;;;;17.61;65.07;100178.72;5056041;28;20103;-61
2023/07/08 00:39:15;;;;;;;1.08;1.02;;;;;;;17.54;65.26;100174.56;5056036;28;20135;-61
2023/07/08 00:41:45;;;;;;;1.65;0.85;;;;;;;17.39;65.83;100170.53;5055960;28;20044;-61
2023/07/08 00:44:13;;;;;;;;;;;;;;;17.30;66.31;100176.72;5056321;28;20398;-61
2023/07/08 00:46:53;;;;;;;1.17;0.90;;;;;;;17.27;66.50;100170.78;5054431;28;20301;-61
2023/07/08 00:49:32;;;;;;;0.98;0.90;;;;;;;17.31;66.71;100168.09;5055924;28;20091;-61
2023/07/08 00:52:22;;;;;;;0.60;0.57;;;;;;;17.40;66.48;100165.31;5054631;28;20049;-61
2023/07/08 00:54:53;;;;;;;1.33;1.20;;;;;;;17.48;65.91;100164.31;5054604;28;20053;-61
2023/07/08 00:57:28;;;;;;;1.17;0.80;;;;;;;17.50;65.80;100168.56;5055781;28;20498;-61
2023/07/08 01:00:03;;;;;;;1.10;1.00;;;;;;;17.55;65.74;100165.91;5070852;28;20045;-61
2023/07/08 01:02:36;;;;;;;1.27;1.13;;;;;;;17.59;65.38;100162.41;5055398;28;20045;-61
2023/07/08 01:05:07;;;;;;;0.82;0.75;;;;;;;17.63;65.18;100169.19;5054013;28;20128;-61
2023/07/08 01:07:45;;;;;;;0.60;0.60;;;;;;;17.63;65.01;100169.19;5055915;28;20045;-60
2023/07/08 01:10:21;;;;;;;0.80;0.80;;;;;;;17.59;65.00;100170.16;5055128;28;20049;-61
2023/07/08 01:12:56;;;;;;;1.30;1.13;;;;;;;17.55;64.74;100169.34;5055100;28;20128;-60
2023/07/08 01:15:32;;;;;;;0.65;0.65;;;;;;;17.43;65.21;100161.84;5053823;28;20069;-61
2023/07/08 01:18:02;;;;;;;1.67;1.58;;;;;;;17.40;65.81;100167.06;5054161;28;20095;-60
2023/07/08 01:20:30;;;;;;;;;;;;;;;17.40;65.49;100160.16;5053963;28;20063;-61
2023/07/08 01:23:01;;;;;;;0.50;0.50;;;;;;;17.36;65.36;100166.28;5055497;28;19964;-61
2023/07/08 01:25:30;;;;;;;1.30;1.20;;;;;;;17.32;65.27;100153.47;5055137;28;20057;-60
2023/07/08 01:27:59;;;;;;;1.05;0.98;;;;;;;17.25;65.64;100162.22;5070579;28;20083;-60
2023/07/08 01:30:28;;;;;;;0.98;0.93;;;;;;;17.19;65.91;100162.34;5070619;28;20032;-60
2023/07/08 01:33:02;;;;;;;0.75;0.75;;;;;;;17.15;65.91;100161.56;5054129;28;20391;-61
2023/07/08 01:35:31;;;;;;;0.65;0.65;;;;;;;17.07;66.29;100168.59;5053707;28;20056;-60
2023/07/08 01:38:04;;;;;;;;;;;;;;;16.92;66.61;100163.72;5054418;28;20037;-60
2023/07/08 01:40:35;;;;;;;0.50;0.50;;;;;;;16.64;67.23;100177.97;5054927;28;20024;-61
2023/07/08 01:43:06;;;;;;;1.13;0.82;;;;;;;16.42;68.30;100171.44;5053684;28;20051;-61
2023/07/08 01:45:41;;;;;;;1.30;1.17;;;;;;;16.25;68.60;100163.13;5053550;28;20063;-60
2023/07/08 01:48:14;;;;;;;1.17;1.10;;;;;;;16.20;68.80;100172.66;5054530;28;20052;-60
2023/07/08 01:50:49;;;;;;;1.55;0.98;;;;;;;16.12;69.71;100177.09;5054915;28;20398;-60
2023/07/08 01:53:23;;;;;;;0.80;0.80;;;;;;;16.01;69.73;100169.53;5054310;28;20084;-60
2023/07/08 01:55:52;;;;;;;0.73;0.73;;;;;;;16.11;70.28;100165.94;5054482;28;20134;-60
2023/07/08 01:58:21;;;;;;;1.52;1.35;;;;;;;16.14;69.98;100170.19;5053064;28;20075;-60
2023/07/08 02:00:51;;;;;;;0.63;0.63;;;;;;;16.31;69.55;100168.22;5053313;28;20525;-60
2023/07/08 02:03:20;;;;;;;0.60;0.60;;;;;;;16.40;68.87;100168.06;5054512;28;20045;-60
2023/07/08 02:05:49;;;;;;;0.65;0.65;;;;;;;16.50;68.23;100169.59;5054428;28;20470;-60
2023/07/08 02:08:20;;;;;;;1.52;1.42;;;;;;;16.54;67.77;100166.13;5054024;28;20537;-60
2023/07/08 02:10:52;;;;;;;0.82;0.60;;;;;;;16.49;67.56;100167.88;5054378;28;20045;-60
2023/07/08 02:13:22;;;;;;;0.65;0.63;;;;;;;16.39;67.73;100163.75;5054270;28;20049;-60
2023/07/08 02:15:52;;;;;;;0.85;0.77;;;;;;;16.29;67.44;100164.81;5054593;28;20052;-60
2023/07/08 02:18:24;;;;;;;0.95;0.80;;;;;;;16.22;68.13;100169.19;5069406;28;20065;-60
2023/07/08 02:20:55;;;;;;;0.80;0.80;;;;;;;16.21;68.23;100170.09;5052628;28;20086;-60
2023/07/08 02:23:26;;;;;;;0.80;0.70;;;;;;;16.23;68.24;100170.91;5053892;28;20128;-60
2023/07/08 02:26:00;;;;;;;0.77;0.77;;;;;;;16.27;68.19;100176.88;5054007;28;20080;-60
2023/07/08 02:28:29;;;;;;;1.30;1.20;;;;;;;16.29;68.02;100180.28;5053702;28;20550;-60
2023/07/08 02:31:03;;;;;;;1.13;1.07;;;;;;;16.34;68.16;100173.31;5053672;28;20300;-60
2023/07/08 02:33:33;;;;;;;0.85;0.85;;;;;;;16.39;68.02;100171.50;5053668;28;20045;-60
2023/07/08 02:36:02;;;;;;;3.20;2.00;;;;;;;16.37;67.78;100173.25;5052445;28;20465;-60
2023/07/08 02:38:32;;;;;;;0.77;0.73;;;;;;;16.42;67.59;100176.59;5053832;28;20095;-60
2023/07/08 02:41:01;;;;;;;0.57;0.57;;;;;;;16.45;67.72;100171.41;5053827;28;20373;-60
2023/07/08 02:43:31;;;;;;;0.90;0.80;;;;;;;16.47;67.52;100170.50;5053655;28;20061;-60
2023/07/08 02:46:00;;;;;;;;;;;;;;;16.47;67.83;100169.66;5053935;28;20056;-61
2023/07/08 02:48:29;;;;;;;3.33;0.90;;;;;;;16.36;67.73;100166.41;5052481;28;19920;-60
2023/07/08 02:51:01;;;;;;;0.80;0.77;;;;;;;16.40;68.12;100168.91;5053382;28;20091;-60
2023/07/08 02:53:33;;;;;;;0.70;0.70;;;;;;;16.40;68.19;100173.19;5052291;28;20568;-60
2023/07/08 02:56:02;;;;;;;0.80;0.80;;;;;;;16.39;68.64;100171.50;5052413;28;20560;-60
2023/07/08 02:58:31;;;;;;;1.15;1.00;;;;;;;16.34;68.67;100170.75;5069432;28;20040;-60
2023/07/08 03:01:00;;;;;;;0.73;0.70;;;;;;;16.34;69.06;100170.75;5053345;28;20060;-60
2023/07/08 03:03:30;;;;;;;1.05;0.85;;;;;;;16.28;68.32;100178.56;5053899;28;20045;-60
2023/07/08 03:06:02;;;;;;;4.07;1.05;;;;;;;16.29;68.22;100181.09;5052950;28;20470;-60
2023/07/08 03:08:33;;;;;;;0.70;0.70;;;;;;;16.32;67.95;100181.06;5053327;28;20079;-60
2023/07/08 03:11:05;;;;;;;1.10;1.00;;;;;;;16.33;67.87;100176.75;5053609;28;20457;-60
2023/07/08 03:13:35;;;;;;;0.80;0.73;;;;;;;16.39;67.60;100177.50;5053871;28;20049;-60
2023/07/08 03:16:08;;;;;;;2.17;0.98;;;;;;;16.40;68.04;100173.19;5068955;28;20547;-60
2023/07/08 03:18:45;;;;;;;0.90;0.90;;;;;;;16.43;67.76;100173.16;5052270;28;20041;-60
2023/07/08 03:21:16;;;;;;;1.77;1.23;;;;;;;16.34;68.51;100174.16;5067462;28;20581;-60
2023/07/08 03:23:49;;;;;;;0.75;0.75;;;;;;;16.29;68.62;100180.28;5073519;28;20118;-60
2023/07/08 03:26:21;;;;;;;1.17;1.08;;;;;;;16.19;68.93;100176.13;5072068;28;20044;-60
2023/07/08 03:28:51;;;;;;;1.50;1.40;;;;;;;16.01;69.92;100179.81;5073096;28;20106;-60
2023/07/08 03:31:21;;;;;;;0.90;0.90;;;;;;;15.95;69.88;100175.63;5074855;28;20040;-60
2023/07/08 03:33:52;;;;;;;0.70;0.70;;;;;;;16.05;69.81;100172.03;5059111;28;20075;-60
2023/07/08 03:36:25;;;;;;;1.08;0.98;;;;;;;16.08;69.70;100176.28;5075775;28;20048;-60
2023/07/08 03:38:57;;;;;;;10.43;1.80;;;;;;;16.23;70.13;100170.91;5077125;28;20379;-60
2023/07/08 03:41:26;;;;;;;0.90;0.90;;;;;;;16.39;69.77;100166.34;5076777;28;20078;-60
2023/07/08 03:43:56;;;;;;;0.80;0.80;;;;;;;16.48;69.08;100166.22;5076698;28;20048;-60
2023/07/08 03:46:25;;;;;;;0.70;0.55;;;;;;;16.57;68.74;100174.66;5076678;28;20047;-60
2023/07/08 03:48:54;;;;;;;0.90;0.63;;;;;;;16.59;68.68;100172.91;5058865;28;20045;-60
2023/07/08 03:51:27;;;;;;;0.97;0.97;;;;;;;16.64;68.53;100177.97;5058692;28;20051;-60
2023/07/08 03:53:57;;;;;;;0.73;0.73;;;;;;;16.72;68.41;100186.44;5075545;28;20313;-60
2023/07/08 03:56:26;;;;;;;0.70;0.70;;;;;;;16.69;67.91;100181.34;5058899;28;20417;-60
2023/07/08 03:58:56;;;;;;;1.52;1.33;;;;;;;16.73;67.81;100177.81;5076907;28;20468;-60
2023/07/08 04:01:27;;;;;;;1.05;0.95;;;;;;;16.77;67.68;100176.91;5058869;28;20036;-60
2023/07/08 04:03:58;;;;;;;1.13;1.02;;;;;;;16.83;67.59;100179.34;5058680;28;20056;-60
2023/07/08 04:06:29;;;;;;;1.05;0.85;;;;;;;16.85;67.77;100185.34;5076354;28;20049;-60
2023/07/08 04:09:00;;;;;;;0.70;0.70;;;;;;;16.89;67.82;100187.00;5058861;28;20040;-60
2023/07/08 04:11:29;;;;;;;0.85;0.73;;;;;;;16.87;67.68;100175.00;5076212;28;20098;-60
2023/07/08 04:13:58;;;;;;;1.80;1.10;;;;;;;16.99;67.70;100179.94;5076504;28;20510;-60
2023/07/08 04:16:31;;;;;;;0.65;0.65;;;;;;;17.01;67.99;100179.00;5074987;28;20050;-60
2023/07/08 04:19:00;;;;;;;0.68;0.63;;;;;;;16.96;68.22;100183.44;5076362;28;20063;-60
2023/07/08 04:21:30;;;;;;;1.27;1.00;;;;;;;16.97;68.57;100177.38;5075799;28;20045;-60
2023/07/08 04:24:01;;;;;;;1.00;0.82;;;;;;;17.10;68.16;100185.72;5076027;28;20057;-60
2023/07/08 04:26:30;;;;;;;1.33;1.10;;;;;;;17.25;68.11;100178.53;5076299;28;20048;-60
2023/07/08 04:28:59;;;;;;;0.60;0.60;;;;;;;17.41;67.68;100179.09;5075940;28;20569;-60
2023/07/08 04:31:28;;;;;;;1.10;1.00;;;;;;;17.50;67.46;100175.44;5076092;28;20082;-60
2023/07/08 04:33:57;;;;;;;2.30;1.35;;;;;;;17.64;67.78;100181.19;5075834;28;20278;-61
2023/07/08 04:36:26;;;;;;;0.60;0.60;;;;;;;17.79;67.36;100180.88;5075758;28;20044;-61
2023/07/08 04:38:57;;;;;;;1.58;1.48;;;;;;;17.86;67.25;100192.78;5075672;28;20051;-61
2023/07/08 04:41:28;;;;;;;1.75;1.13;;;;;;;17.91;67.18;100188.38;5075294;28;20060;-61
2023/07/08 04:44:02;;;;;;;0.68;0.68;;;;;;;18.05;66.99;100188.91;5076040;28;20049;-61
2023/07/08 04:46:38;;;;;;;1.10;0.95;;;;;;;18.24;66.71;100178.97;5075989;28;20440;-61
2023/07/08 04:49:10;;;;;;;0.60;0.60;;;;;;;18.41;66.25;100182.00;5075584;28;20049;-61
2023/07/08 04:51:39;;;;;;;0.98;0.90;;;;;;;18.57;66.14;100184.19;5057796;28;20048;-61
2023/07/08 04:54:08;;;;;;;6.97;2.33;;;;;;;18.73;65.35;100180.34;5075799;28;20068;-61
2023/07/08 04:56:41;;;;;;;1.20;0.98;;;;;;;18.85;64.15;100183.50;5075366;28;20079;-62
2023/07/08 04:59:11;;;;;;;0.60;0.60;;;;;;;19.02;63.45;100176.16;5075300;28;20504;-61
2023/07/08 05:01:40;;;;;;;2.83;0.95;;;;;;;19.13;62.68;100179.28;5075294;28;20123;-61
2023/07/08 05:04:11;;;;;;;1.25;0.82;;;;;;;19.33;62.23;100182.16;5075189;28;20048;-61
2023/07/08 05:06:40;;;;;;;0.52;0.52;;;;;;;19.36;61.45;100188.13;5075253;28;20504;-61
2023/07/08 05:09:09;;;;;;;0.93;0.90;;;;;;;19.39;61.00;100182.00;5075146;28;20040;-61
2023/07/08 05:11:39;;;;;;;0.90;0.90;;;;;;;19.49;60.71;100180.88;5075356;28;20346;-61
2023/07/08 05:14:08;;;;;;;1.38;1.10;;;;;;;19.62;60.10;100189.13;5075604;28;20062;-62
2023/07/08 05:16:37;;;;;;;1.10;0.70;;;;;;;19.73;59.74;100185.31;5075272;28;20048;-63
2023/07/08 05:19:06;;;;;;;0.60;0.60;;;;;;;19.73;59.32;100182.72;5074841;28;20058;-62
2023/07/08 05:21:35;;;;;;;1.02;0.93;;;;;;;19.83;58.95;100178.97;5075017;28;20478;-62
2023/07/08 05:24:08;;;;;;;1.13;1.02;;;;;;;19.93;58.56;100179.53;5075116;28;20139;-61
2023/07/08 05:26:39;;;;;;;1.73;1.23;;;;;;;20.08;57.93;100185.09;5074807;28;20128;-62
2023/07/08 05:29:08;;;;;;;1.75;1.20;;;;;;;20.24;57.96;100195.00;5074812;28;20048;-61
2023/07/08 05:31:37;;;;;;;1.05;0.95;;;;;;;20.42;57.48;100192.66;5074718;28;20071;-62
2023/07/08 05:34:16;;;;;;;1.10;1.05;;;;;;;20.50;57.13;100192.41;5074629;28;20055;-61
2023/07/08 05:36:45;;;;;;;0.70;0.70;;;;;;;20.61;56.93;100191.16;5074956;28;20393;-61
2023/07/08 05:39:14;;;;;;;0.50;0.50;;;;;;;20.81;56.60;100193.09;5074481;28;20080;-62
2023/07/08 05:41:45;;;;;;;1.08;0.73;;;;;;;20.90;56.39;100187.56;5074497;28;20037;-62
2023/07/08 05:44:14;;;;;;;0.95;0.85;;;;;;;20.99;55.87;100187.28;5074887;28;20059;-62
2023/07/08 05:46:43;;;;;;;0.77;0.77;;;;;;;21.06;55.54;100191.38;5074365;28;20036;-61
2023/07/08 05:49:12;;;;;;;0.60;0.60;;;;;;;21.14;55.30;100191.94;5056713;28;20552;-61
2023/07/08 05:51:41;;;;;;;1.02;0.90;;;;;;;21.26;55.38;100191.50;5074559;28;20478;-61
2023/07/08 05:54:10;;;;;;;0.80;0.80;;;;;;;21.39;55.22;100191.91;5073505;28;20041;-62
2023/07/08 05:56:39;;;;;;;2.78;0.80;;;;;;;21.52;54.93;100192.31;5074506;28;20489;-61
2023/07/08 05:59:09;;;;;;;0.65;0.63;;;;;;;21.62;54.64;100198.88;5074839;28;20486;-61
2023/07/08 06:01:38;;;;;;;1.33;1.00;;;;;;;21.75;54.57;100206.13;5074481;28;20044;-62
2023/07/08 06:04:07;;;;;;;0.60;0.60;;;;;;;21.86;54.39;100192.75;5074074;28;20048;-62
2023/07/08 06:06:36;;;;;;;1.23;0.70;;;;;;;21.94;54.16;100195.91;5074073;28;20051;-62
2023/07/08 06:09:05;;;;;;;1.35;0.98;;;;;;;22.10;53.85;100188.38;5074006;28;20068;-62
2023/07/08 06:11:34;;;;;;;1.23;1.05;;;;;;;22.25;53.62;100201.59;5074104;28;20496;-62
2023/07/08 06:14:03;;;;;;;0.55;0.55;;;;;;;22.29;52.98;100192.75;5073949;28;20037;-62
2023/07/08 06:16:35;;;;;;;0.80;0.80;;;;;;;22.38;52.69;100192.41;5074132;28;20044;-62
2023/07/08 06:19:09;;;;;;;1.90;1.08;;;;;;;22.44;52.29;100196.50;5074037;28;20473;-62
2023/07/08 06:21:39;;;;;;;0.80;0.80;;;;;;;22.57;51.93;100203.75;5073526;28;20157;-62
2023/07/08 06:24:08;;;;;;;;;;;;;;;22.71;51.80;100191.94;5074827;28;20048;-62
2023/07/08 06:26:37;;;;;;;0.70;0.70;;;;;;;22.83;52.07;100189.66;5074082;28;19927;-62
2023/07/08 06:29:06;;;;;;;3.72;0.93;;;;;;;22.92;51.80;100191.00;5073772;28;20059;-62
2023/07/08 06:31:36;;;;;;;1.40;0.98;;;;;;;22.99;51.75;100195.03;5073646;28;20128;-61
2023/07/08 06:34:05;;;;;;;1.42;1.10;;;;;;;23.06;51.88;100192.13;5073697;28;20056;-62
2023/07/08 06:36:35;;;;;;;2.95;1.58;;;;;;;23.22;51.58;100187.94;5073888;28;20405;-62
2023/07/08 06:39:07;;;;;;;1.33;1.23;;;;;;;23.28;51.12;100195.47;5073759;28;20032;-62
2023/07/08 06:41:36;;;;;;;1.52;1.00;;;;;;;23.36;50.83;100189.97;5056093;28;20044;-62
2023/07/08 06:44:05;;;;;;;0.77;0.50;;;;;;;23.49;51.07;100200.69;5074048;28;20037;-62
2023/07/08 06:46:36;;;;;;;0.50;0.50;;;;;;;23.57;50.24;100196.81;5073450;28;20044;-62
2023/07/08 06:49:08;;;;;;;0.70;0.70;;;;;;;23.60;49.90;100194.06;5073511;28;20048;-62
2023/07/08 06:51:37;;;;;;;1.35;1.15;;;;;;;23.68;49.33;100191.09;5073757;28;20055;-62
2023/07/08 06:54:11;;;;;;;1.23;0.77;;;;;;;23.77;49.73;100188.06;5073665;28;20067;-62
2023/07/08 06:56:40;;;;;;;0.63;0.52;;;;;;;23.80;49.74;100190.53;5073461;28;20052;-62
2023/07/08 06:59:10;;;;;;;1.05;0.77;;;;;;;23.94;49.25;100183.75;5073594;28;20402;-62
2023/07/08 07:01:41;;;;;;;2.60;0.65;;;;;;;24.04;48.67;100189.38;5073323;28;20050;-62
2023/07/08 07:04:10;;;;;;;0.50;0.50;;;;;;;24.10;48.63;100183.03;5073617;28;20048;-62
2023/07/08 07:06:39;;;;;;;2.17;1.00;;;;;;;24.24;48.02;100196.25;5077336;28;20037;-62
2023/07/08 07:09:08;;;;;;;8.10;2.55;;;;;;;24.33;47.76;100185.41;5077405;28;20379;-62
2023/07/08 07:11:36;;;;;;;1.25;0.95;;;;;;;24.44;47.27;100189.16;5077631;28;20068;-62
2023/07/08 07:14:05;;;;;;;0.40;0.40;;;;;;;24.56;46.64;100182.50;5077517;28;20061;-62
2023/07/08 07:16:56;;;;;;;1.02;0.77;;;;;;;24.59;45.69;100171.91;5077322;28;20040;-62
2023/07/08 07:19:37;;;;;;;0.80;0.70;;;;;;;24.77;45.38;100185.81;5076971;28;20044;-62
2023/07/08 07:22:06;;;;;;;0.88;0.82;;;;;;;24.89;45.52;100180.81;5077715;28;20036;-62
2023/07/08 07:24:35;;;;;;;0.40;0.40;;;;;;;24.97;45.77;100183.88;5077447;28;20564;-62
2023/07/08 07:27:05;;;;;;;0.65;0.65;;;;;;;24.89;45.79;100179.97;5077024;28;20068;-62
2023/07/08 07:29:42;;;;;;;0.95;0.65;;;;;;;24.94;45.98;100183.19;5077273;28;20506;-62
2023/07/08 07:32:14;;;;;;;0.60;0.60;;;;;;;25.11;45.84;100180.56;5076954;28;20052;-63
2023/07/08 07:34:43;;;;;;;0.75;0.70;;;;;;;25.22;44.83;100168.59;5075789;28;20127;-63
2023/07/08 07:37:13;;;;;;;0.70;0.70;;;;;;;25.34;44.24;100171.50;5077218;28;20033;-62
2023/07/08 07:39:43;;;;;;;0.75;0.75;;;;;;;25.48;43.98;100174.25;5058996;28;20123;-61
2023/07/08 07:42:12;;;;;;;0.50;0.50;;;;;;;25.60;44.05;100179.66;5076835;28;20083;-63
2023/07/08 07:44:45;;;;;;;0.52;0.52;;;;;;;25.74;43.81;100174.53;5076756;28;20047;-62
2023/07/08 07:47:15;;;;;;;0.47;0.47;;;;;;;25.86;43.27;100175.63;5077257;28;20067;-63
2023/07/08 07:49:45;;;;;;;0.50;0.50;;;;;;;25.90;42.74;100177.13;5077026;28;20040;-62
2023/07/08 07:52:15;;;;;;;;;;;;;;;26.01;42.53;100173.94;5076980;28;20040;-62
2023/07/08 07:54:45;;;;;;;0.50;0.50;;;;;;;26.08;43.36;100176.13;5077000;28;19966;-62
2023/07/08 07:57:14;;;;;;;0.60;0.60;;;;;;;26.19;42.80;100172.91;5076467;28;20083;-62
2023/07/08 07:59:43;;;;;;;0.38;0.38;;;;;;;26.36;43.12;100165.78;5076372;28;20040;-62
2023/07/08 08:02:15;;;;;;;0.50;0.50;;;;;;;26.44;42.38;100168.78;5077031;28;20041;-62
2023/07/08 08:04:44;;;;;;;0.70;0.70;;;;;;;26.55;42.10;100169.00;5076651;28;20068;-62
2023/07/08 08:07:13;;;;;;;0.40;0.40;;;;;;;26.57;41.37;100161.91;5076655;28;20032;-62
2023/07/08 08:09:42;;;;;;;0.50;0.50;;;;;;;26.73;41.45;100153.97;5075157;28;20118;-62
2023/07/08 08:12:12;;;;;;;;;;;;;;;26.84;41.32;100153.38;5076947;28;20040;-61
2023/07/08 08:14:41;;;;;;;0.52;0.52;;;;;;;26.89;41.29;100153.94;5076136;28;19921;-61
2023/07/08 08:17:10;;;;;;;;;;;;;;;26.88;40.72;100154.88;5075633;28;20080;-60
2023/07/08 08:19:40;;;;;;;0.52;0.50;;;;;;;26.87;39.41;100158.44;5075957;28;19970;-62
2023/07/08 08:22:09;;;;;;;0.40;0.40;;;;;;;26.79;38.96;100147.56;5076015;28;20044;-62
2023/07/08 08:24:40;;;;;;;1.13;0.82;;;;;;;26.83;39.98;100154.28;5076671;28;20044;-62
2023/07/08 08:27:09;;;;;;;0.50;0.50;;;;;;;26.83;40.17;100154.28;5076217;28;20045;-62
2023/07/08 08:29:38;;;;;;;1.23;1.00;;;;;;;26.94;39.95;100159.75;5075879;28;20040;-62
2023/07/08 08:32:07;;;;;;;;;;;;;;;26.85;39.20;100157.69;5076237;28;20044;-62
2023/07/08 08:34:37;;;;;;;0.70;0.70;;;;;;;26.84;39.65;100150.75;5058221;28;19927;-62
2023/07/08 08:37:09;;;;;;;0.40;0.40;;;;;;;27.04;39.78;100153.03;5075754;28;20157;-60
2023/07/08 08:39:38;;;;;;;0.75;0.68;;;;;;;27.11;39.41;100144.66;5075655;28;20143;-63
2023/07/08 08:42:27;;;;;;;0.60;0.60;;;;;;;27.15;39.79;100153.19;5075722;28;20052;-60
2023/07/08 08:44:59;;;;;;;0.80;0.80;;;;;;;27.16;39.82;100147.84;5075672;28;20048;-62
2023/07/08 08:47:39;;;;;;;0.55;0.55;;;;;;;27.21;40.05;100145.81;5075667;28;20045;-61
2023/07/08 08:50:28;;;;;;;0.65;0.65;;;;;;;27.38;40.37;100144.78;5075252;28;20448;-61
2023/07/08 08:53:00;;;;;;;;;;;;;;;27.46;39.97;100150.41;5076158;28;20052;-62
2023/07/08 08:55:30;;;;;;;0.40;0.40;;;;;;;27.52;39.19;100149.19;5075501;28;19920;-62
2023/07/08 08:58:11;;;;;;;0.85;0.80;;;;;;;27.58;38.10;100149.63;5075635;28;20037;-62
2023/07/08 09:00:54;;;;;;;0.60;0.50;;;;;;;27.60;36.98;100158.25;5075573;28;20375;-62
2023/07/08 09:03:41;;;;;;;1.05;0.77;;;;;;;27.52;37.54;100150.00;5057828;28;20106;-62
2023/07/08 09:06:13;;;;;;;3.03;1.42;;;;;;;27.69;37.57;100144.53;5075224;28;20048;-61
2023/07/08 09:08:44;;;;;;;0.40;0.40;;;;;;;27.75;37.37;100141.53;5074173;28;20566;-62
2023/07/08 09:11:37;;;;;;;0.32;0.32;;;;;;;27.85;37.36;100137.38;5075434;28;20047;-62
2023/07/08 09:14:16;;;;;;;0.77;0.77;;;;;;;27.78;37.19;100135.25;5075087;28;20551;-63
2023/07/08 09:16:51;;;;;;;1.10;0.73;;;;;;;27.74;36.47;100139.84;5075047;28;20055;-61
2023/07/08 09:19:26;;;;;;;0.40;0.40;;;;;;;27.80;37.04;100134.22;5075283;28;20052;-62
2023/07/08 09:22:03;;;;;;;0.80;0.80;;;;;;;27.85;36.97;100132.13;5075055;28;20114;-61
2023/07/08 09:24:42;;;;;;;0.57;0.57;;;;;;;28.03;36.60;100134.53;5074831;28;20190;-61
2023/07/08 09:27:12;;;;;;;1.17;0.98;;;;;;;28.19;36.62;100130.81;5057156;28;20052;-61
2023/07/08 09:29:42;;;;;;;0.65;0.65;;;;;;;28.20;36.13;100142.13;5073717;28;20514;-62
2023/07/08 09:32:18;;;;;;;1.45;0.93;;;;;;;28.09;36.04;100140.22;5074714;28;20402;-63
2023/07/08 09:34:52;;;;;;;0.50;0.50;;;;;;;27.91;35.82;100136.97;5075311;28;20474;-61
2023/07/08 09:37:27;;;;;;;0.70;0.70;;;;;;;28.17;36.17;100126.59;5074571;28;20059;-62
2023/07/08 09:40:05;;;;;;;0.47;0.47;;;;;;;28.37;35.96;100134.00;5057035;28;20362;-62
2023/07/08 09:42:36;;;;;;;0.90;0.90;;;;;;;28.30;36.29;100133.56;5074884;28;20135;-62
2023/07/08 09:45:16;;;;;;;1.52;0.98;;;;;;;28.28;35.90;100131.97;5074382;28;20044;-62
2023/07/08 09:47:48;;;;;;;0.88;0.73;;;;;;;28.10;35.69;100130.59;5074776;28;20049;-62
2023/07/08 09:50:21;;;;;;;0.50;0.50;;;;;;;28.17;36.09;100126.59;5074750;28;20127;-62
2023/07/08 09:52:53;;;;;;;0.70;0.70;;;;;;;28.41;35.96;100132.84;5074328;28;20059;-61
2023/07/08 09:55:28;;;;;;;0.73;0.73;;;;;;;28.39;35.39;100132.94;5073802;28;20131;-62
2023/07/08 09:58:01;;;;;;;1.13;0.90;;;;;;;28.41;35.70;100114.47;5074519;28;20048;-60
2023/07/08 10:00:40;;;;;;;0.55;0.52;;;;;;;28.67;35.63;100123.25;5074088;28;20501;-62
2023/07/08 10:03:18;;;;;;;0.93;0.85;;;;;;;28.74;35.17;100127.97;5056566;28;20060;-62
2023/07/08 10:05:49;;;;;;;0.75;0.75;;;;;;;28.84;34.98;100118.50;5074379;28;20161;-62
2023/07/08 10:08:21;;;;;;;1.15;1.05;;;;;;;28.77;34.77;100116.41;5074008;28;20059;-62
2023/07/08 10:11:02;;;;;;;8.38;0.88;;;;;;;28.81;34.77;100110.84;5074332;28;20040;-62
2023/07/08 10:13:43;;;;;;;0.57;0.57;;;;;;;28.87;34.65;100113.03;5056354;28;20057;-62
2023/07/08 10:16:22;;;;;;;0.60;0.60;;;;;;;28.84;33.95;100105.34;5073908;28;20072;-63
2023/07/08 10:18:52;;;;;;;0.65;0.65;;;;;;;28.82;33.96;100104.63;5074184;28;20114;-62
2023/07/08 10:21:31;;;;;;;0.60;0.60;;;;;;;29.02;34.32;100101.47;5073696;28;20048;-62
2023/07/08 10:24:26;;;;;;;0.63;0.50;;;;;;;29.03;34.23;100100.50;5056631;28;20123;-61
2023/07/08 10:27:09;;;;;;;1.05;0.85;;;;;;;29.07;34.15;100104.59;5073729;28;20053;-61
2023/07/08 10:29:54;;;;;;;0.65;0.63;;;;;;;29.09;34.50;100092.19;5073050;28;20072;-62
2023/07/08 10:32:35;;;;;;;0.77;0.77;;;;;;;29.15;34.38;100091.75;5073660;28;20052;-62
2023/07/08 10:35:17;;;;;;;0.60;0.60;;;;;;;29.28;34.91;100090.91;5073805;28;20040;-61
2023/07/08 10:38:00;;;;;;;0.50;0.50;;;;;;;29.28;34.61;100096.16;5073968;28;20051;-63
2023/07/08 10:40:40;;;;;;;1.25;0.93;;;;;;;29.40;35.02;100105.81;5073380;28;20127;-61
2023/07/08 10:43:39;;;;;;;0.90;0.90;;;;;;;29.11;34.64;100098.19;5073527;28;20056;-62
2023/07/08 10:46:20;;;;;;;0.82;0.80;;;;;;;29.04;34.31;100085.56;5073831;28;20044;-62
2023/07/08 10:49:19;;;;;;;0.57;0.47;;;;;;;29.37;34.22;100085.00;5073508;28;20056;-63
2023/07/08 10:52:03;;;;;;;0.40;0.40;;;;;;;29.44;34.05;100076.53;5073456;28;20047;-62
2023/07/08 10:54:49;;;;;;;0.88;0.70;;;;;;;29.65;33.94;100066.28;5073403;28;20072;-62
2023/07/08 10:57:41;;;;;;;1.77;1.05;;;;;;;29.77;33.19;100071.50;5073176;28;20466;-62
2023/07/08 11:00:25;;;;;;;0.50;0.50;;;;;;;29.50;33.25;100070.00;5073157;28;20136;-62
2023/07/08 11:03:22;;;;;;;0.57;0.57;;;;;;;29.46;33.55;100073.81;5073339;28;20086;-62
2023/07/08 11:06:01;;;;;;;0.40;0.40;;;;;;;29.63;34.30;100065.53;5073650;28;20044;-62
2023/07/08 11:08:36;;;;;;;0.60;0.60;;;;;;;29.89;34.78;100067.13;5073350;28;20048;-61
2023/07/08 11:11:14;;;;;;;0.43;0.43;;;;;;;30.10;35.23;100055.00;5073306;28;20166;-62
2023/07/08 11:13:50;;;;;;;0.40;0.40;;;;;;;29.98;34.13;100061.16;5073321;28;20072;-62
2023/07/08 11:16:27;;;;;;;0.77;0.77;;;;;;;29.98;33.48;100055.06;5072948;28;20049;-62
2023/07/08 11:19:03;;;;;;;1.38;0.90;;;;;;;30.03;33.42;100058.19;5071915;28;20063;-62
2023/07/08 11:21:37;;;;;;;0.50;0.50;;;;;;;30.05;32.84;100051.84;5072933;28;20048;-62
2023/07/08 11:24:15;;;;;;;0.30;0.30;;;;;;;30.23;33.13;100054.91;5055367;28;20055;-62
2023/07/08 11:26:51;;;;;;;1.00;0.93;;;;;;;30.13;32.27;100049.50;5073208;28;20068;-62
2023/07/08 11:29:26;;;;;;;0.50;0.50;;;;;;;30.16;32.44;100054.50;5073078;28;20076;-60
2023/07/08 11:31:57;;;;;;;0.82;0.63;;;;;;;30.03;32.38;100058.19;5055917;28;20397;-63
2023/07/08 11:34:28;;;;;;;0.50;0.50;;;;;;;29.86;32.67;100059.44;5073420;28;20048;-59
2023/07/08 11:37:00;;;;;;;0.60;0.57;;;;;;;29.99;32.37;100054.13;5073434;28;20489;-63
2023/07/08 11:39:34;;;;;;;0.45;0.45;;;;;;;30.14;32.74;100051.16;5073418;28;20489;-62
2023/07/08 11:42:19;;;;;;;0.45;0.45;;;;;;;30.39;32.58;100035.22;5073229;28;20482;-62
2023/07/08 11:44:53;;;;;;;0.43;0.43;;;;;;;30.49;31.38;100041.47;5054633;28;20501;-62
2023/07/08 11:47:27;;;;;;;0.50;0.50;;;;;;;30.34;31.37;100045.25;5072595;28;20041;-61
2023/07/08 11:49:57;;;;;;;0.50;0.50;;;;;;;30.45;31.46;100044.41;5072960;28;20044;-62
2023/07/08 11:52:31;;;;;;;0.50;0.50;;;;;;;30.43;31.56;100046.34;5074685;28;20052;-62